Portsmouth, Rhode Island
Current Conditions -  °F | °C
As of 8:53 AM on Thursday 27 Nov 2014 (Local Time) from KUUU Reporting Station
Overcast Overcast  
Wind Chill:   Ceiling: 2600
Heat Index:   Visibility: 10mi
Dew Point: -1°   Wind: 5mph
Humidity: 76%   Direction: 290°WNW
Pressure: 29.94"   Gusts: NA
Location:  41.6°N, 71.25°W
Report Text: KUUU 271353Z AUTO 29004KT 10SM BKN026 OVC060 03/M01 A2994 RMK AO2 SLP140 T00281011
Loading
Personal Weather Stations






























Interactive Weather Map New forecast layout! Learn more

10-Day Weather Forecast

Advertisements
Track Severe Weather on mobile